Time;durP1;ratioP1;P1;durP2;ratioP2;P2;SDS_P1;SDS_P2;PMS_P1;PMS_P2;Temp;Humidity;BMP_temperature;BMP_pressure;BME280_temperature;BME280_humidity;BME280_pressure;Samples;Min_cycle;Max_cycle;Signal;HPM_P1;HPM_P2
2023/11/23 00:00:50;;;;;;;;;;;;;;;28.70;76.96;100804.56;5040913;28;66636;-34
2023/11/23 00:03:20;;;;;;;;;;;;;;;28.68;77.21;100812.03;5042094;28;69755;-35
2023/11/23 00:05:50;;;;;;;;;;;;;;;28.73;77.49;100820.34;5041604;28;66979;-34
2023/11/23 00:08:20;;;;;;;;;;;;;;;28.72;78.24;100824.06;5040794;28;70141;-35
2023/11/23 00:10:50;;;;;;;;;;;;;;;28.79;78.47;100830.28;5041114;28;66086;-34
2023/11/23 00:13:19;;;;;;;;;;;;;;;28.82;78.50;100832.56;5041678;28;69745;-33
2023/11/23 00:15:49;;;;;;;;;;;;;;;28.83;78.27;100836.94;5040594;28;67072;-34
2023/11/23 00:18:19;;;;;;;;;;;;;;;28.86;78.33;100841.09;5039801;28;69839;-35
2023/11/23 00:20:49;;;;;;;;;;;;;;;28.90;77.98;100840.47;5037944;28;66248;-35
2023/11/23 00:23:19;;;;;;;;;;;;;;;28.94;77.74;100844.41;5038685;28;70506;-35
2023/11/23 00:25:48;;;;;;;;;;;;;;;28.95;78.81;100845.25;5040027;28;66896;-35
2023/11/23 00:28:19;;;;;;;;;;;;;;;28.96;78.72;100847.72;5040407;28;69966;-34
2023/11/23 00:30:49;;;;;;;;;;;;;;;28.99;78.45;100859.16;5037190;28;65867;-34
2023/11/23 00:33:19;;;;;;;;;;;;;;;29.01;78.91;100859.78;5036073;28;70252;-35
2023/11/23 00:35:49;;;;;;;;;;;;;;;29.03;78.07;100863.09;5051317;28;66869;-39
2023/11/23 00:38:19;;;;;;;;;;;;;;;29.09;77.98;100867.72;5036186;28;70549;-34
2023/11/23 00:40:48;;;;;;;;;;;;;;;29.15;76.88;100869.59;5036316;28;66890;-34
2023/11/23 00:43:18;;;;;;;;;;;;;;;29.18;76.50;100882.66;5035124;28;70724;-34
2023/11/23 00:45:48;;;;;;;;;;;;;;;29.22;75.89;100894.69;5036617;28;66470;-33
2023/11/23 00:48:18;;;;;;;;;;;;;;;29.26;75.16;100898.66;5019090;28;69505;-34
2023/11/23 00:50:48;;;;;;;;;;;;;;;29.26;72.98;100901.38;5014366;28;66621;-33
2023/11/23 00:53:17;;;;;;;;;;;;;;;29.30;71.36;100897.19;5031166;28;70350;-34
2023/11/23 00:55:50;;;;;;;;;;;;;;;29.34;70.85;100903.03;5038392;28;67099;-34
2023/11/23 00:58:19;;;;;;;;;;;;;;;29.36;69.53;100904.50;5038136;28;69725;-34
2023/11/23 01:00:49;;;;;;;;;;;;;;;29.40;68.95;100913.81;5036372;28;66840;-34
2023/11/23 01:03:19;;;;;;;;;;;;;;;29.44;68.95;100910.69;5018480;28;70964;-34
2023/11/23 01:05:50;;;;;;;;;;;;;;;29.46;68.18;100911.31;5037096;28;66923;-35
2023/11/23 01:08:20;;;;;;;;;;;;;;;29.49;68.17;100916.31;5007827;28;69882;-34
2023/11/23 01:10:50;;;;;;;;;;;;;;;29.51;67.40;100914.22;5020668;28;65484;-33
2023/11/23 01:13:20;;;;;;;;;;;;;;;29.54;67.43;100913.81;5037741;28;69889;-34
2023/11/23 01:15:50;;;;;;;;;;;;;;;29.56;67.34;100911.69;5033397;28;67060;-35
2023/11/23 01:18:20;;;;;;;;;;;;;;;29.58;66.62;100915.03;5037282;28;69248;-34
2023/11/23 01:20:50;;;;;;;;;;;;;;;29.60;66.95;100924.59;5037018;28;66909;-34
2023/11/23 01:23:20;;;;;;;;;;;;;;;29.61;66.68;100910.06;5034456;28;70265;-34
2023/11/23 01:25:49;;;;;;;;;;;;;;;29.63;66.86;100909.88;5039673;28;65136;-34
2023/11/23 01:28:19;;;;;;;;;;;;;;;29.66;66.51;100922.97;5034903;28;69951;-35
2023/11/23 01:30:49;;;;;;;;;;;;;;;29.68;66.18;100923.59;5049283;28;65702;-34
2023/11/23 01:33:19;;;;;;;;;;;;;;;29.68;66.13;100920.88;5037703;28;70130;-34
2023/11/23 01:35:49;;;;;;;;;;;;;;;29.70;66.16;100920.66;5038805;28;65743;-33
2023/11/23 01:38:19;;;;;;;;;;;;;;;29.71;66.28;100923.16;5036696;28;69845;-34
2023/11/23 01:40:49;;;;;;;;;;;;;;;29.73;65.74;100929.19;5039355;28;65334;-34
2023/11/23 01:43:19;;;;;;;;;;;;;;;29.74;65.51;100933.53;5053719;28;69393;-34
2023/11/23 01:45:48;;;;;;;;;;;;;;;29.76;65.40;100934.19;5037087;28;66144;-34
2023/11/23 01:48:20;;;;;;;;;;;;;;;29.77;65.55;100935.81;5019790;28;68791;-36
2023/11/23 01:50:50;;;;;;;;;;;;;;;29.80;65.48;100939.97;5035889;28;66133;-34
2023/11/23 01:53:20;;;;;;;;;;;;;;;29.78;65.60;100932.09;5033904;28;70054;-34
2023/11/23 01:55:50;;;;;;;;;;;;;;;29.82;65.23;100933.31;5037596;28;66794;-35
2023/11/23 01:58:21;;;;;;;;;;;;;;;29.84;65.63;100936.66;5052575;28;68911;-35
2023/11/23 02:00:51;;;;;;;;;;;;;;;29.87;65.13;100935.41;5006671;28;66500;-34
2023/11/23 02:03:22;;;;;;;;;;;;;;;29.89;65.35;100932.47;5018683;28;70402;-34
2023/11/23 02:05:52;;;;;;;;;;;;;;;29.90;65.24;100937.69;5036639;28;66677;-34
2023/11/23 02:08:23;;;;;;;;;;;;;;;29.92;65.44;100932.03;5036024;28;70591;-35
2023/11/23 02:10:53;;;;;;;;;;;;;;;29.94;65.42;100924.56;5043701;28;66048;-34
2023/11/23 02:13:23;;;;;;;;;;;;;;;29.96;64.87;100927.88;5019519;28;70365;-34
2023/11/23 02:15:52;;;;;;;;;;;;;;;29.97;64.97;100924.94;5019400;28;67094;-34
2023/11/23 02:18:22;;;;;;;;;;;;;;;29.99;64.81;100928.28;5038168;28;69990;-35
2023/11/23 02:20:52;;;;;;;;;;;;;;;30.01;65.09;100930.78;5037393;28;66249;-35
2023/11/23 02:23:22;;;;;;;;;;;;;;;30.02;64.93;100927.03;5018636;28;71291;-34
2023/11/23 02:25:51;;;;;;;;;;;;;;;30.05;64.68;100932.00;5020644;28;66058;-34
2023/11/23 02:28:21;;;;;;;;;;;;;;;30.06;64.60;100922.84;5019105;28;70903;-34
2023/11/23 02:30:51;;;;;;;;;;;;;;;30.08;64.47;100920.75;5018150;28;65893;-35
2023/11/23 02:33:20;;;;;;;;;;;;;;;30.10;64.68;100924.09;5018952;28;69689;-33
2023/11/23 02:35:50;;;;;;;;;;;;;;;30.11;64.49;100923.03;5038065;28;64763;-34
2023/11/23 02:38:21;;;;;;;;;;;;;;;30.13;64.60;100912.81;5017900;28;71417;-35
2023/11/23 02:40:51;;;;;;;;;;;;;;;30.16;64.24;100912.41;5037861;28;65917;-34
2023/11/23 02:43:21;;;;;;;;;;;;;;;30.17;64.64;100919.50;5037802;28;70653;-33
2023/11/23 02:45:50;;;;;;;;;;;;;;;30.19;64.24;100917.38;5051436;28;66589;-35
2023/11/23 02:48:20;;;;;;;;;;;;;;;30.21;64.52;100920.72;5038406;28;70538;-35
2023/11/23 02:50:51;;;;;;;;;;;;;;;30.24;64.37;100914.06;5038247;28;65247;-34
2023/11/23 02:53:42;;;;;;;;;;;;;;;30.26;64.05;100917.41;5035929;28;71174;-34
2023/11/23 02:56:13;;;;;;;;;;;;;;;30.28;64.39;100913.44;5029447;28;66027;-35
2023/11/23 02:58:42;;;;;;;;;;;;;;;30.30;64.15;100912.38;5018572;28;70192;-34
2023/11/23 03:01:13;;;;;;;;;;;;;;;30.32;64.15;100911.13;5038278;28;66953;-34
2023/11/23 03:03:43;;;;;;;;;;;;;;;30.34;63.86;100914.44;5037639;28;69672;-34
2023/11/23 03:06:14;;;;;;;;;;;;;;;30.36;63.69;100911.50;5037170;28;68277;-33
2023/11/23 03:08:45;;;;;;;;;;;;;;;30.38;64.12;100909.41;5038910;28;70536;-35
2023/11/23 03:11:22;;;;;;;;;;;;;;;30.40;63.83;100916.28;5012560;28;66067;-34
2023/11/23 03:13:54;;;;;;;;;;;;;;;30.42;63.79;100905.22;5039896;28;69134;-35
2023/11/23 03:16:26;;;;;;;;;;;;;;;30.44;63.70;100903.13;5041007;28;65498;-34
2023/11/23 03:18:56;;;;;;;;;;;;;;;30.46;63.59;100903.75;5015622;28;69836;-36
2023/11/23 03:21:26;;;;;;;;;;;;;;;30.48;63.93;100890.84;4995483;28;66016;-36
2023/11/23 03:23:57;;;;;;;;;;;;;;;30.50;63.86;100894.13;5042030;28;70330;-34
2023/11/23 03:26:27;;;;;;;;;;;;;;;30.51;63.85;100882.28;5039843;28;66771;-35
2023/11/23 03:28:56;;;;;;;;;;;;;;;30.54;63.74;100887.25;5040638;28;70369;-34
2023/11/23 03:31:26;;;;;;;;;;;;;;;30.56;63.76;100879.72;5023260;28;66237;-34
2023/11/23 03:33:56;;;;;;;;;;;;;;;30.57;63.64;100870.56;5039673;28;69976;-35
2023/11/23 03:36:26;;;;;;;;;;;;;;;30.60;63.53;100858.47;5023298;28;66881;-35
2023/11/23 03:38:57;;;;;;;;;;;;;;;30.62;63.36;100861.78;5042031;28;70148;-34
2023/11/23 03:41:27;;;;;;;;;;;;;;;30.64;63.27;100851.56;5038116;28;66643;-35
2023/11/23 03:43:57;;;;;;;;;;;;;;;30.66;63.15;100844.88;5041328;28;70655;-35
2023/11/23 03:46:27;;;;;;;;;;;;;;;30.68;63.30;100840.09;5041240;28;66713;-36
2023/11/23 03:48:57;;;;;;;;;;;;;;;30.71;63.34;100842.34;5021322;28;69861;-36
2023/11/23 03:51:26;;;;;;;;;;;;;;;30.73;63.05;100826.72;5040973;28;65367;-35
2023/11/23 03:53:56;;;;;;;;;;;;;;;30.75;63.31;100829.19;5041738;28;69301;-34
2023/11/23 03:56:26;;;;;;;;;;;;;;;30.76;63.23;100817.34;5026488;28;67003;-34
2023/11/23 03:58:55;;;;;;;;;;;;;;;30.79;63.03;100807.94;5040733;28;70050;-33
2023/11/23 04:01:25;;;;;;;;;;;;;;;30.80;63.36;100809.63;5040907;28;66917;-35
2023/11/23 04:03:54;;;;;;;;;;;;;;;30.82;63.10;100796.69;5038341;28;70265;-34
2023/11/23 04:06:25;;;;;;;;;;;;;;;30.83;63.29;100798.34;5040580;28;66618;-34
2023/11/23 04:08:54;;;;;;;;;;;;;;;30.85;63.44;100796.25;5040722;28;70682;-34
2023/11/23 04:11:25;;;;;;;;;;;;;;;30.86;63.37;100792.47;5038093;28;66306;-34
2023/11/23 04:13:54;;;;;;;;;;;;;;;30.87;62.83;100775.16;5039054;28;70844;-34
2023/11/23 04:16:24;;;;;;;;;;;;;;;30.88;63.11;100774.13;5040453;28;66027;-34
2023/11/23 04:18:54;;;;;;;;;;;;;;;30.90;62.90;100766.63;5036950;28;70360;-36
2023/11/23 04:21:23;;;;;;;;;;;;;;;30.91;63.25;100757.44;5036924;28;65997;-35
2023/11/23 04:23:53;;;;;;;;;;;;;;;30.92;63.01;100753.66;5040594;28;70477;-34
2023/11/23 04:26:23;;;;;;;;;;;;;;;30.94;63.06;100749.69;5037310;28;66681;-34
2023/11/23 04:28:53;;;;;;;;;;;;;;;30.96;62.68;100745.94;5035622;28;70627;-34
2023/11/23 04:31:25;;;;;;;;;;;;;;;30.98;63.01;100743.81;5039289;28;66788;-34
2023/11/23 04:33:55;;;;;;;;;;;;;;;30.99;63.10;100743.59;5037580;28;69084;-35
2023/11/23 04:36:26;;;;;;;;;;;;;;;31.02;62.86;100745.03;5039469;28;66623;-33
2023/11/23 04:38:58;;;;;;;;;;;;;;;31.03;62.72;100733.94;5038725;28;70479;-34
2023/11/23 04:41:28;;;;;;;;;;;;;;;31.04;62.56;100730.22;5038044;28;67520;-34
2023/11/23 04:44:00;;;;;;;;;;;;;;;31.06;62.71;100725.38;5039009;28;70648;-34
2023/11/23 04:46:30;;;;;;;;;;;;;;;31.08;62.53;100725.16;5038028;28;66586;-34
2023/11/23 04:49:00;;;;;;;;;;;;;;;31.09;62.67;100715.97;5039205;28;70827;-34
2023/11/23 04:51:30;;;;;;;;;;;;;;;31.10;62.67;100713.06;5039316;28;66659;-34
2023/11/23 04:53:59;;;;;;;;;;;;;;;31.12;62.77;100704.69;5038917;28;70672;-34
2023/11/23 04:56:30;;;;;;;;;;;;;;;31.13;62.53;100690.91;5038577;28;66488;-34
2023/11/23 04:59:02;;;;;;;;;;;;;;;31.15;62.64;100704.25;5039243;28;70924;-34
2023/11/23 05:01:32;;;;;;;;;;;;;;;31.15;62.47;100688.81;5038015;28;67038;-36
2023/11/23 05:04:02;;;;;;;;;;;;;;;31.15;62.52;100683.41;5030950;28;70893;-35
2023/11/23 05:06:35;;;;;;;;;;;;;;;31.19;62.53;100688.34;5039705;28;66002;-34
2023/11/23 05:09:06;;;;;;;;;;;;;;;31.19;62.56;100688.34;5036271;28;69858;-33
2023/11/23 05:11:36;;;;;;;;;;;;;;;31.20;62.70;100673.75;5039372;28;66816;-35
2023/11/23 05:14:09;;;;;;;;;;;;;;;31.22;62.72;100677.06;5039676;28;70816;-34
2023/11/23 05:16:39;;;;;;;;;;;;;;;31.21;62.49;100670.00;5035518;28;66027;-34
2023/11/23 05:19:08;;;;;;;;;;;;;;;31.23;62.63;100670.56;5036993;28;69738;-35
2023/11/23 05:21:39;;;;;;;;;;;;;;;31.24;62.37;100664.94;5030902;28;66559;-34
2023/11/23 05:24:09;;;;;;;;;;;;;;;31.25;62.66;100665.78;5034364;28;70822;-34
2023/11/23 05:26:38;;;;;;;;;;;;;;;31.25;62.10;100655.75;5034856;28;66139;-34
2023/11/23 05:29:08;;;;;;;;;;;;;;;31.27;62.26;100652.81;5034988;28;70604;-34
2023/11/23 05:31:38;;;;;;;;;;;;;;;31.27;62.37;100648.22;5035304;28;65479;-34
2023/11/23 05:34:07;;;;;;;;;;;;;;;31.27;62.04;100648.22;5039210;28;69884;-33
2023/11/23 05:36:37;;;;;;;;;;;;;;;31.26;62.17;100637.59;5038431;28;67062;-33
2023/11/23 05:39:09;;;;;;;;;;;;;;;31.29;62.12;100642.59;5034158;28;69749;-34
2023/11/23 05:41:39;;;;;;;;;;;;;;;31.29;61.95;100640.69;5037713;28;66192;-34
2023/11/23 05:44:08;;;;;;;;;;;;;;;31.31;62.23;100640.47;5030607;28;69634;-33
2023/11/23 05:46:38;;;;;;;;;;;;;;;31.30;61.94;100633.41;5036128;28;66823;-34
2023/11/23 05:49:08;;;;;;;;;;;;;;;31.32;61.96;100636.72;5037881;28;69934;-34
2023/11/23 05:51:39;;;;;;;;;;;;;;;31.32;61.90;100628.59;5037750;28;66676;-34
2023/11/23 05:54:08;;;;;;;;;;;;;;;31.33;62.05;100622.09;5036478;28;70304;-34
2023/11/23 05:56:38;;;;;;;;;;;;;;;31.34;62.24;100623.72;5037943;28;65082;-34
2023/11/23 05:59:08;;;;;;;;;;;;;;;31.35;62.25;100626.22;5038978;28;69186;-34
2023/11/23 06:01:38;;;;;;;;;;;;;;;31.36;61.73;100613.53;5037417;28;66084;-35
2023/11/23 06:04:08;;;;;;;;;;;;;;;31.36;62.03;100608.94;5038850;28;70389;-35
2023/11/23 06:06:38;;;;;;;;;;;;;;;31.39;61.94;100610.34;5038934;28;65459;-34
2023/11/23 06:09:12;;;;;;;;;;;;;;;31.39;62.09;100608.47;5018300;28;70417;-35
2023/11/23 06:11:41;;;;;;;;;;;;;;;31.40;62.23;100584.94;5035724;28;66998;-33
2023/11/23 06:14:11;;;;;;;;;;;;;;;31.41;62.18;100586.56;5038618;28;70400;-33
2023/11/23 06:16:41;;;;;;;;;;;;;;;31.42;62.10;100590.91;5038115;28;66872;-34
2023/11/23 06:19:10;;;;;;;;;;;;;;;31.44;62.32;100585.28;5037067;28;69841;-33
2023/11/23 06:21:40;;;;;;;;;;;;;;;31.44;62.28;100588.81;5038472;28;66718;-33
2023/11/23 06:24:09;;;;;;;;;;;;;;;31.46;62.38;100586.72;5037282;28;70586;-34
2023/11/23 06:26:39;;;;;;;;;;;;;;;31.47;62.07;100584.81;5038519;28;66562;-35
2023/11/23 06:29:08;;;;;;;;;;;;;;;31.47;62.32;100582.94;5038618;28;70304;-34
2023/11/23 06:31:38;;;;;;;;;;;;;;;31.48;62.61;100576.47;5036940;28;66130;-34
2023/11/23 06:34:08;;;;;;;;;;;;;;;31.50;62.19;100566.19;5034414;28;69758;-34
2023/11/23 06:36:40;;;;;;;;;;;;;;;31.51;62.31;100570.56;5038616;28;66690;-34
2023/11/23 06:39:23;;;;;;;;;;;;;;;31.50;62.30;100560.78;5037801;28;70726;-33
2023/11/23 06:41:54;;;;;;;;;;;;;;;31.52;62.51;100564.09;5038297;28;66681;-34
2023/11/23 06:44:25;;;;;;;;;;;;;;;31.52;62.28;100563.25;5036158;28;69910;-35
2023/11/23 06:46:55;;;;;;;;;;;;;;;31.51;62.27;100559.72;5038643;28;65205;-34
2023/11/23 06:49:25;;;;;;;;;;;;;;;31.53;62.16;100570.31;5039311;28;70398;-34
2023/11/23 06:51:55;;;;;;;;;;;;;;;31.53;62.51;100565.72;5039738;28;66611;-35
2023/11/23 06:54:24;;;;;;;;;;;;;;;31.54;62.21;100559.25;5033519;28;70205;-34
2023/11/23 06:56:55;;;;;;;;;;;;;;;31.55;62.15;100565.50;5042045;28;65988;-34
2023/11/23 06:59:25;;;;;;;;;;;;;;;31.54;62.07;100561.97;5039715;28;69644;-34
2023/11/23 07:01:55;;;;;;;;;;;;;;;31.52;62.50;100569.50;5042325;28;67261;-34
2023/11/23 07:04:24;;;;;;;;;;;;;;;31.53;62.23;100565.72;5039833;28;69861;-34
2023/11/23 07:06:55;;;;;;;;;;;;;;;31.53;62.35;100559.47;5037533;28;66766;-35
2023/11/23 07:09:25;;;;;;;;;;;;;;;31.52;62.35;100558.66;5041664;28;70156;-34
2023/11/23 07:11:55;;;;;;;;;;;;;;;31.51;62.67;100562.44;5041726;28;65448;-35
2023/11/23 07:14:24;;;;;;;;;;;;;;;31.50;62.42;100555.34;5037956;28;70571;-35
2023/11/23 07:16:55;;;;;;;;;;;;;;;31.51;62.39;100551.59;5040927;28;66151;-33
2023/11/23 07:19:24;;;;;;;;;;;;;;;31.52;62.33;100553.25;5040732;28;70541;-34
2023/11/23 07:21:54;;;;;;;;;;;;;;;31.50;62.59;100560.78;5039210;28;66294;-34
2023/11/23 07:24:24;;;;;;;;;;;;;;;31.50;62.41;100551.81;5041218;28;69736;-34
2023/11/23 07:26:53;;;;;;;;;;;;;;;31.48;62.69;100545.78;5040950;28;65824;-34
2023/11/23 07:29:23;;;;;;;;;;;;;;;31.48;62.57;100554.78;5039708;28;70008;-34
2023/11/23 07:31:52;;;;;;;;;;;;;;;31.49;62.86;100561.84;5036751;28;66500;-34
2023/11/23 07:34:22;;;;;;;;;;;;;;;31.46;62.44;100559.59;5039640;28;70531;-35
2023/11/23 07:36:51;;;;;;;;;;;;;;;31.48;62.78;100567.47;5019760;28;66352;-35
2023/11/23 07:39:22;;;;;;;;;;;;;;;31.44;62.78;100577.97;5038718;28;70644;-35
2023/11/23 07:41:52;;;;;;;;;;;;;;;31.44;63.45;100583.38;5040001;28;66506;-33
2023/11/23 07:44:21;;;;;;;;;;;;;;;31.45;63.66;100589.63;5038583;28;69734;-34
2023/11/23 07:46:51;;;;;;;;;;;;;;;31.44;63.88;100598.84;5038072;28;65795;-36
2023/11/23 07:49:21;;;;;;;;;;;;;;;31.43;63.85;100603.44;5020334;28;69827;-35
2023/11/23 07:51:50;;;;;;;;;;;;;;;31.43;63.91;100619.69;5039040;28;66605;-35
2023/11/23 07:54:20;;;;;;;;;;;;;;;31.42;64.06;100601.75;5040749;28;70416;-35
2023/11/23 07:56:51;;;;;;;;;;;;;;;31.41;64.00;100605.53;5032013;28;66379;-34
2023/11/23 07:59:20;;;;;;;;;;;;;;;31.25;64.36;100557.38;5038957;28;70454;-34
2023/11/23 08:01:50;;;;;;;;;;;;;;;31.36;64.04;100581.81;5039551;28;66293;-37
2023/11/23 08:04:20;;;;;;;;;;;;;;;31.35;64.40;100595.59;5040680;28;69384;-36
2023/11/23 08:06:49;;;;;;;;;;;;;;;31.32;64.15;100601.47;5037401;28;66630;-35
2023/11/23 08:09:21;;;;;;;;;;;;;;;31.30;64.59;100617.13;5040923;28;70042;-35
2023/11/23 08:11:53;;;;;;;;;;;;;;;31.29;64.25;100618.19;5039587;28;66156;-34
2023/11/23 08:14:23;;;;;;;;;;;;;;;31.26;64.22;100618.63;5040001;28;69443;-34
2023/11/23 08:16:54;;;;;;;;;;;;;;;31.23;64.58;100617.25;5035635;28;66865;-36
2023/11/23 08:19:25;;;;;;;;;;;;;;;31.21;64.66;100621.22;5039340;28;69688;-34
2023/11/23 08:21:56;;;;;;;;;;;;;;;31.16;64.62;100620.00;5040763;28;66457;-35
2023/11/23 08:24:25;;;;;;;;;;;;;;;31.14;65.03;100638.38;5036176;28;70635;-35
2023/11/23 08:26:55;;;;;;;;;;;;;;;31.12;64.86;100639.66;5052874;28;66954;-36
2023/11/23 08:29:26;;;;;;;;;;;;;;;31.09;64.58;100630.13;5031384;28;70237;-34
2023/11/23 08:31:57;;;;;;;;;;;;;;;31.07;64.87;100632.22;5040009;28;66453;-35
2023/11/23 08:34:27;;;;;;;;;;;;;;;30.88;64.87;100606.22;5049663;28;70203;-34
2023/11/23 08:36:57;;;;;;;;;;;;;;;31.01;64.58;100643.97;5039830;28;65510;-34
2023/11/23 08:39:27;;;;;;;;;;;;;;;30.97;65.04;100637.34;5039215;28;69864;-34
2023/11/23 08:41:57;;;;;;;;;;;;;;;30.96;64.79;100638.41;5013112;28;66891;-35
2023/11/23 08:44:26;;;;;;;;;;;;;;;30.94;65.01;100626.97;5040096;28;70322;-36
2023/11/23 08:46:57;;;;;;;;;;;;;;;30.91;64.53;100630.13;5039513;28;66763;-34
2023/11/23 08:49:27;;;;;;;;;;;;;;;30.88;64.86;100639.53;5037811;28;69781;-35
2023/11/23 08:51:57;;;;;;;;;;;;;;;30.86;64.77;100662.47;5039350;28;65939;-34
2023/11/23 08:54:26;;;;;;;;;;;;;;;30.84;64.40;100661.88;5039235;28;69744;-34
2023/11/23 08:56:58;;;;;;;;;;;;;;;30.80;64.74;100647.97;5037206;28;66520;-34
2023/11/23 08:59:27;;;;;;;;;;;;;;;30.79;64.14;100650.88;5035455;28;70251;-34
2023/11/23 09:01:57;;;;;;;;;;;;;;;30.76;64.34;100652.16;5038406;28;66950;-33
2023/11/23 09:04:41;;;;;;;;;;;;;;;30.75;64.48;100661.31;5037091;28;68999;-37
2023/11/23 09:07:13;;;;;;;;;;;;;;;30.73;64.66;100648.00;5035899;28;66644;-35
2023/11/23 09:09:44;;;;;;;;;;;;;;;30.72;64.50;100653.63;5037191;28;69964;-34
2023/11/23 09:12:13;;;;;;;;;;;;;;;30.70;64.43;100663.84;5039317;28;66693;-34
2023/11/23 09:14:44;;;;;;;;;;;;;;;30.68;64.78;100672.22;5039555;28;70792;-36
2023/11/23 09:17:17;;;;;;;;;;;;;;;30.67;64.88;100669.72;5033707;28;67054;-35
2023/11/23 09:19:47;;;;;;;;;;;;;;;30.46;70.25;100658.28;5039121;28;69261;-34
2023/11/23 09:22:17;;;;;;;;;;;;;;;30.42;71.29;100653.53;5033937;28;67122;-34
2023/11/23 09:24:46;;;;;;;;;;;;;;;30.32;72.35;100645.91;5025562;28;69227;-34
2023/11/23 09:27:16;;;;;;;;;;;;;;;30.30;73.00;100652.59;5054619;28;66883;-35
2023/11/23 09:29:47;;;;;;;;;;;;;;;30.26;73.42;100644.94;5038941;28;70170;-34
2023/11/23 09:32:16;;;;;;;;;;;;;;;30.24;73.36;100643.50;5037115;28;65751;-34
2023/11/23 09:34:46;;;;;;;;;;;;;;;30.21;73.91;100650.16;5020037;28;70032;-34
2023/11/23 09:37:16;;;;;;;;;;;;;;;30.20;73.71;100662.03;5037006;28;66633;-36
2023/11/23 09:39:49;;;;;;;;;;;;;;;30.22;74.26;100678.06;5037726;28;70647;-36
2023/11/23 09:42:20;;;;;;;;;;;;;;;30.19;75.04;100694.69;5041772;28;66269;-36
2023/11/23 09:44:54;;;;;;;;;;;;;;;30.18;75.26;100693.88;5035365;28;70275;-34
2023/11/23 09:47:31;;;;;;;;;;;;;;;29.83;75.87;100642.94;5011114;28;66087;-36
2023/11/23 09:50:01;;;;;;;;;;;;;;;30.21;75.82;100708.84;5040125;28;70256;-34
2023/11/23 09:52:31;;;;;;;;;;;;;;;30.16;75.94;100706.78;5038185;28;67088;-35
2023/11/23 09:55:02;;;;;;;;;;;;;;;30.16;76.26;100701.38;5037111;28;69721;-34
2023/11/23 09:57:32;;;;;;;;;;;;;;;30.16;76.49;100706.78;5037076;28;66220;-34
2023/11/23 10:00:09;;;;;;;;;;;;;;;30.14;76.40;100717.00;5033671;28;70739;-34
2023/11/23 10:02:39;;;;;;;;;;;;;;;30.15;76.33;100718.66;5034312;28;66076;-34
2023/11/23 10:05:11;;;;;;;;;;;;;;;30.14;76.99;100719.69;5034559;28;70140;-33
2023/11/23 10:07:42;;;;;;;;;;;;;;;30.14;77.05;100719.69;5031721;28;66652;-35
2023/11/23 10:10:13;;;;;;;;;;;;;;;30.13;77.12;100720.75;5035734;28;70194;-36
2023/11/23 10:12:44;;;;;;;;;;;;;;;30.13;77.34;100726.16;5024243;28;65749;-37
2023/11/23 10:15:15;;;;;;;;;;;;;;;30.12;77.50;100727.22;5032463;28;70490;-35
2023/11/23 10:17:45;;;;;;;;;;;;;;;30.13;77.41;100728.88;5036108;28;66653;-34
2023/11/23 10:20:17;;;;;;;;;;;;;;;30.13;77.74;100736.97;5031459;28;70404;-33
2023/11/23 10:22:48;;;;;;;;;;;;;;;30.13;77.70;100733.47;5034267;28;67150;-33
2023/11/23 10:25:24;;;;;;;;;;;;;;;30.12;77.44;100738.03;5039014;28;69271;-35
2023/11/23 10:27:58;;;;;;;;;;;;;;;29.98;77.77;100725.66;5037705;28;66686;-36
2023/11/23 10:30:28;;;;;;;;;;;;;;;30.11;77.86;100752.59;5039500;28;70647;-35
2023/11/23 10:33:00;;;;;;;;;;;;;;;30.10;78.25;100767.19;5038927;28;65525;-36
2023/11/23 10:35:41;;;;;;;;;;;;;;;30.11;77.83;100768.00;5037425;28;70126;-33
2023/11/23 10:38:12;;;;;;;;;;;;;;;30.12;77.68;100781.31;5037725;28;66919;-36
2023/11/23 10:40:45;;;;;;;;;;;;;;;30.12;78.38;100775.09;5036312;28;69304;-34
2023/11/23 10:43:17;;;;;;;;;;;;;;;30.12;77.81;100775.09;5037270;28;65965;-34
2023/11/23 10:45:48;;;;;;;;;;;;;;;30.11;78.25;100785.06;5037768;28;70420;-34
2023/11/23 10:48:19;;;;;;;;;;;;;;;30.14;77.59;100790.03;5036128;28;67029;-35
2023/11/23 10:50:50;;;;;;;;;;;;;;;30.16;77.95;100793.34;5037913;28;69500;-36
2023/11/23 10:53:21;;;;;;;;;;;;;;;30.16;78.53;100798.78;5038091;28;67160;-35
2023/11/23 10:55:51;;;;;;;;;;;;;;;30.14;77.87;100795.44;5038304;28;70269;-36
2023/11/23 10:58:22;;;;;;;;;;;;;;;30.12;77.96;100792.16;5041726;28;65633;-34
2023/11/23 11:00:52;;;;;;;;;;;;;;;30.12;78.19;100800.25;5023159;28;70093;-37
2023/11/23 11:03:22;;;;;;;;;;;;;;;30.10;77.72;100799.66;5040293;28;66657;-36
2023/11/23 11:05:56;;;;;;;;;;;;;;;30.10;78.04;100810.47;5041810;28;69443;-35
2023/11/23 11:08:30;;;;;;;;;;;;;;;30.09;78.24;100813.38;5042332;28;66547;-35
2023/11/23 11:11:07;;;;;;;;;;;;;;;30.09;78.10;100813.38;5042106;28;69839;-34
2023/11/23 11:13:44;;;;;;;;;;;;;;;30.09;78.31;100813.38;5040685;28;66711;-35
2023/11/23 11:16:15;;;;;;;;;;;;;;;30.07;78.64;100805.50;5033049;28;70695;-35
2023/11/23 11:18:52;;;;;;;;;;;;;;;30.08;78.69;100814.44;5014499;28;65152;-35
2023/11/23 11:21:23;;;;;;;;;;;;;;;30.07;78.85;100816.31;5040607;28;70532;-35
2023/11/23 11:23:57;;;;;;;;;;;;;;;30.07;78.80;100819.00;5041556;28;65937;-36
2023/11/23 11:26:30;;;;;;;;;;;;;;;30.06;78.45;100820.91;5041453;28;70679;-35
2023/11/23 11:29:00;;;;;;;;;;;;;;;30.07;78.42;100829.84;5039956;28;66271;-36
2023/11/23 11:31:36;;;;;;;;;;;;;;;30.05;78.83;100824.63;5041200;28;70371;-35
2023/11/23 11:34:20;;;;;;;;;;;;;;;30.05;79.08;100830.03;5042116;28;66119;-37
2023/11/23 11:36:59;;;;;;;;;;;;;;;30.04;78.75;100827.56;5040853;28;69541;-35
2023/11/23 11:39:31;;;;;;;;;;;;;;;30.03;78.91;100828.59;5051556;28;66055;-35
2023/11/23 11:42:00;;;;;;;;;;;;;;;30.03;79.04;100826.75;5033563;28;69830;-34
2023/11/23 11:44:33;;;;;;;;;;;;;;;30.03;78.82;100831.28;5042093;28;66230;-34
2023/11/23 11:47:06;;;;;;;;;;;;;;;30.02;79.21;100829.66;5040416;28;69737;-35
2023/11/23 11:49:36;;;;;;;;;;;;;;;30.02;78.93;100833.19;5041060;28;66274;-34
2023/11/23 11:52:07;;;;;;;;;;;;;;;30.02;79.19;100845.88;5056139;28;69840;-35
2023/11/23 11:54:38;;;;;;;;;;;;;;;30.01;78.90;100846.94;5038799;28;66610;-36
2023/11/23 11:57:07;;;;;;;;;;;;;;;30.00;79.45;100850.66;5041126;28;69912;-35
2023/11/23 11:59:38;;;;;;;;;;;;;;;30.01;79.13;100852.34;5041814;28;66567;-36
2023/11/23 12:02:09;;;;;;;;;;;;;;;30.01;79.32;100855.03;5039208;28;70384;-34
2023/11/23 12:04:41;;;;;;;;;;;;;;;30.00;78.95;100864.19;5041454;28;67082;-33
2023/11/23 12:07:17;;;;;;;;;;;;;;;29.99;79.36;100851.72;5046853;28;70064;-35
2023/11/23 12:09:53;;;;;;;;;;;;;;;29.99;79.24;100851.72;5040626;28;66771;-34
2023/11/23 12:12:23;;;;;;;;;;;;;;;29.99;79.26;100857.13;5041199;28;70650;-34
2023/11/23 12:14:56;;;;;;;;;;;;;;;29.97;79.68;100864.63;5033128;28;66794;-35
2023/11/23 12:17:26;;;;;;;;;;;;;;;29.96;79.28;100876.50;5036217;28;70396;-34
2023/11/23 12:19:56;;;;;;;;;;;;;;;29.97;79.84;100880.84;5041788;28;65730;-34
2023/11/23 12:22:26;;;;;;;;;;;;;;;30.00;79.40;100896.66;5039244;28;69812;-35
2023/11/23 12:25:04;;;;;;;;;;;;;;;29.98;79.04;100896.06;5041289;28;66156;-35
2023/11/23 12:27:34;;;;;;;;;;;;;;;30.03;78.08;100898.91;5040433;28;69965;-34
2023/11/23 12:30:04;;;;;;;;;;;;;;;30.04;77.23;100904.13;5040244;28;66703;-35
2023/11/23 12:32:41;;;;;;;;;;;;;;;30.09;76.70;100906.19;5042403;28;70758;-34
2023/11/23 12:35:15;;;;;;;;;;;;;;;30.11;76.43;100906.78;5025105;28;65764;-35
2023/11/23 12:37:45;;;;;;;;;;;;;;;30.12;79.11;100911.19;5039316;28;69796;-34
2023/11/23 12:40:15;;;;;;;;;;;;;;;30.08;80.13;100907.22;5040394;28;66030;-34
2023/11/23 12:42:46;;;;;;;;;;;;;;;30.04;81.00;100911.41;5038652;28;70291;-36
2023/11/23 12:45:16;;;;;;;;;;;;;;;30.02;81.42;100908.09;5040596;28;66669;-34
2023/11/23 12:47:46;;;;;;;;;;;;;;;30.00;81.58;100902.06;5038657;28;70879;-34
2023/11/23 12:50:16;;;;;;;;;;;;;;;30.01;81.77;100903.72;5038211;28;66895;-36
2023/11/23 12:52:46;;;;;;;;;;;;;;;30.01;81.42;100906.44;5027938;28;70206;-34